sensor_id;sensor_type;location;lat;lon;timestamp;temperature;humidity
56044;DHT22;41912;51.022;3.664;2023-07-31T00:00:36;19.00;99.90
56044;DHT22;41912;51.022;3.664;2023-07-31T00:03:02;19.00;99.90
56044;DHT22;41912;51.022;3.664;2023-07-31T00:05:28;19.00;99.90
56044;DHT22;41912;51.022;3.664;2023-07-31T00:07:53;19.00;99.90
56044;DHT22;41912;51.022;3.664;2023-07-31T00:10:20;19.10;99.90
56044;DHT22;41912;51.022;3.664;2023-07-31T00:12:46;19.00;99.90
56044;DHT22;41912;51.022;3.664;2023-07-31T00:15:13;19.00;99.90
56044;DHT22;41912;51.022;3.664;2023-07-31T00:17:39;19.00;99.90
56044;DHT22;41912;51.022;3.664;2023-07-31T00:20:05;19.00;99.90
56044;DHT22;41912;51.022;3.664;2023-07-31T00:22:31;19.00;99.90
56044;DHT22;41912;51.022;3.664;2023-07-31T00:24:57;19.00;99.90
56044;DHT22;41912;51.022;3.664;2023-07-31T00:27:23;19.00;99.90
56044;DHT22;41912;51.022;3.664;2023-07-31T00:29:48;19.00;99.90
56044;DHT22;41912;51.022;3.664;2023-07-31T00:32:14;19.00;99.90
56044;DHT22;41912;51.022;3.664;2023-07-31T00:34:40;19.00;99.90
56044;DHT22;41912;51.022;3.664;2023-07-31T00:37:05;19.00;99.90
56044;DHT22;41912;51.022;3.664;2023-07-31T00:39:31;19.00;99.90
56044;DHT22;41912;51.022;3.664;2023-07-31T00:41:57;19.00;99.90
56044;DHT22;41912;51.022;3.664;2023-07-31T00:44:22;19.00;99.90
56044;DHT22;41912;51.022;3.664;2023-07-31T00:46:48;19.00;99.90
56044;DHT22;41912;51.022;3.664;2023-07-31T00:49:15;19.00;99.90
56044;DHT22;41912;51.022;3.664;2023-07-31T00:51:41;18.90;99.90
56044;DHT22;41912;51.022;3.664;2023-07-31T00:54:07;18.90;99.90
56044;DHT22;41912;51.022;3.664;2023-07-31T00:56:33;18.90;99.90
56044;DHT22;41912;51.022;3.664;2023-07-31T00:58:58;18.90;99.90
56044;DHT22;41912;51.022;3.664;2023-07-31T01:01:24;18.90;99.90
56044;DHT22;41912;51.022;3.664;2023-07-31T01:03:51;18.90;99.90
56044;DHT22;41912;51.022;3.664;2023-07-31T01:06:42;18.90;99.90
56044;DHT22;41912;51.022;3.664;2023-07-31T01:12:15;18.90;99.90
56044;DHT22;41912;51.022;3.664;2023-07-31T01:15:03;18.90;99.90
56044;DHT22;41912;51.022;3.664;2023-07-31T01:17:29;18.90;99.90
56044;DHT22;41912;51.022;3.664;2023-07-31T01:19:57;19.00;99.90
56044;DHT22;41912;51.022;3.664;2023-07-31T01:28:02;18.90;99.90
56044;DHT22;41912;51.022;3.664;2023-07-31T01:30:32;18.90;99.90
56044;DHT22;41912;51.022;3.664;2023-07-31T01:33:02;18.90;99.90
56044;DHT22;41912;51.022;3.664;2023-07-31T01:35:33;19.00;99.90
56044;DHT22;41912;51.022;3.664;2023-07-31T01:37:59;19.00;99.90
56044;DHT22;41912;51.022;3.664;2023-07-31T01:40:24;19.00;99.90
56044;DHT22;41912;51.022;3.664;2023-07-31T01:42:50;19.00;99.90
56044;DHT22;41912;51.022;3.664;2023-07-31T01:45:16;19.00;99.90
56044;DHT22;41912;51.022;3.664;2023-07-31T01:47:41;19.00;99.90
56044;DHT22;41912;51.022;3.664;2023-07-31T01:50:07;19.00;99.90
56044;DHT22;41912;51.022;3.664;2023-07-31T01:52:33;19.00;99.90
56044;DHT22;41912;51.022;3.664;2023-07-31T01:54:59;19.10;99.90
56044;DHT22;41912;51.022;3.664;2023-07-31T01:57:24;19.00;99.90
56044;DHT22;41912;51.022;3.664;2023-07-31T01:59:50;19.10;99.90
56044;DHT22;41912;51.022;3.664;2023-07-31T02:02:16;19.00;99.90
56044;DHT22;41912;51.022;3.664;2023-07-31T02:04:42;19.00;99.90
56044;DHT22;41912;51.022;3.664;2023-07-31T02:07:07;19.00;99.90
56044;DHT22;41912;51.022;3.664;2023-07-31T02:09:33;18.80;99.90
56044;DHT22;41912;51.022;3.664;2023-07-31T02:11:58;19.00;99.90
56044;DHT22;41912;51.022;3.664;2023-07-31T02:14:24;19.00;99.90
56044;DHT22;41912;51.022;3.664;2023-07-31T02:16:50;19.00;99.90
56044;DHT22;41912;51.022;3.664;2023-07-31T02:19:16;19.00;99.90
56044;DHT22;41912;51.022;3.664;2023-07-31T02:21:41;19.00;99.90
56044;DHT22;41912;51.022;3.664;2023-07-31T02:24:07;19.00;99.90
56044;DHT22;41912;51.022;3.664;2023-07-31T02:26:32;19.00;99.90
56044;DHT22;41912;51.022;3.664;2023-07-31T02:28:58;19.10;99.90
56044;DHT22;41912;51.022;3.664;2023-07-31T02:31:24;19.10;99.90
56044;DHT22;41912;51.022;3.664;2023-07-31T02:33:49;19.10;99.90
56044;DHT22;41912;51.022;3.664;2023-07-31T02:36:15;19.10;99.90
56044;DHT22;41912;51.022;3.664;2023-07-31T02:38:40;19.10;99.90
56044;DHT22;41912;51.022;3.664;2023-07-31T02:41:06;19.10;99.90
56044;DHT22;41912;51.022;3.664;2023-07-31T02:43:31;19.10;99.90
56044;DHT22;41912;51.022;3.664;2023-07-31T02:45:57;19.10;99.90
56044;DHT22;41912;51.022;3.664;2023-07-31T02:48:23;19.10;99.90
56044;DHT22;41912;51.022;3.664;2023-07-31T02:50:48;19.10;99.90
56044;DHT22;41912;51.022;3.664;2023-07-31T02:53:14;19.10;99.90
56044;DHT22;41912;51.022;3.664;2023-07-31T02:55:41;19.10;99.90
56044;DHT22;41912;51.022;3.664;2023-07-31T02:58:06;19.10;99.90
56044;DHT22;41912;51.022;3.664;2023-07-31T03:00:32;19.20;99.90
56044;DHT22;41912;51.022;3.664;2023-07-31T03:02:57;19.20;99.90
56044;DHT22;41912;51.022;3.664;2023-07-31T03:05:23;19.20;99.90
56044;DHT22;41912;51.022;3.664;2023-07-31T03:07:49;19.20;99.90
56044;DHT22;41912;51.022;3.664;2023-07-31T03:10:14;19.20;99.90
56044;DHT22;41912;51.022;3.664;2023-07-31T03:12:40;19.20;99.90
56044;DHT22;41912;51.022;3.664;2023-07-31T03:15:06;19.20;99.90
56044;DHT22;41912;51.022;3.664;2023-07-31T03:17:32;19.20;99.90
56044;DHT22;41912;51.022;3.664;2023-07-31T03:19:58;19.20;99.90
56044;DHT22;41912;51.022;3.664;2023-07-31T03:22:26;19.20;99.90
56044;DHT22;41912;51.022;3.664;2023-07-31T03:24:51;19.20;99.90
56044;DHT22;41912;51.022;3.664;2023-07-31T03:27:17;19.20;99.90
56044;DHT22;41912;51.022;3.664;2023-07-31T03:29:43;19.20;99.90
56044;DHT22;41912;51.022;3.664;2023-07-31T03:32:09;19.20;99.90
56044;DHT22;41912;51.022;3.664;2023-07-31T03:34:34;19.20;99.90
56044;DHT22;41912;51.022;3.664;2023-07-31T03:37:00;19.20;99.90
56044;DHT22;41912;51.022;3.664;2023-07-31T03:39:26;19.20;99.90
56044;DHT22;41912;51.022;3.664;2023-07-31T03:41:51;19.10;99.90
56044;DHT22;41912;51.022;3.664;2023-07-31T03:44:17;19.10;99.90
56044;DHT22;41912;51.022;3.664;2023-07-31T03:46:42;19.10;99.90
56044;DHT22;41912;51.022;3.664;2023-07-31T03:49:08;19.20;99.90
56044;DHT22;41912;51.022;3.664;2023-07-31T03:51:34;19.10;99.90
56044;DHT22;41912;51.022;3.664;2023-07-31T03:53:59;19.10;99.90
56044;DHT22;41912;51.022;3.664;2023-07-31T03:56:25;19.10;99.90
56044;DHT22;41912;51.022;3.664;2023-07-31T03:58:50;19.10;99.90
56044;DHT22;41912;51.022;3.664;2023-07-31T04:01:16;19.10;99.90
56044;DHT22;41912;51.022;3.664;2023-07-31T04:03:43;19.10;99.90
56044;DHT22;41912;51.022;3.664;2023-07-31T04:06:08;19.10;99.90
56044;DHT22;41912;51.022;3.664;2023-07-31T04:08:35;19.10;99.90
56044;DHT22;41912;51.022;3.664;2023-07-31T04:11:00;19.10;99.90
56044;DHT22;41912;51.022;3.664;2023-07-31T04:13:26;19.10;99.90
56044;DHT22;41912;51.022;3.664;2023-07-31T04:15:53;19.10;99.90
56044;DHT22;41912;51.022;3.664;2023-07-31T04:18:20;19.10;99.90
56044;DHT22;41912;51.022;3.664;2023-07-31T04:20:45;19.10;99.90
56044;DHT22;41912;51.022;3.664;2023-07-31T04:23:11;19.10;99.90
56044;DHT22;41912;51.022;3.664;2023-07-31T04:25:37;19.00;99.90
56044;DHT22;41912;51.022;3.664;2023-07-31T04:28:02;19.00;99.90
56044;DHT22;41912;51.022;3.664;2023-07-31T04:30:28;19.10;99.90
56044;DHT22;41912;51.022;3.664;2023-07-31T04:32:53;19.00;99.90
56044;DHT22;41912;51.022;3.664;2023-07-31T04:35:19;19.10;99.90
56044;DHT22;41912;51.022;3.664;2023-07-31T04:37:45;19.10;99.90
56044;DHT22;41912;51.022;3.664;2023-07-31T04:40:14;19.00;99.90
56044;DHT22;41912;51.022;3.664;2023-07-31T04:42:39;19.00;99.90
56044;DHT22;41912;51.022;3.664;2023-07-31T04:45:05;19.00;99.90
56044;DHT22;41912;51.022;3.664;2023-07-31T04:47:31;19.00;99.90
56044;DHT22;41912;51.022;3.664;2023-07-31T04:49:57;19.00;99.90
56044;DHT22;41912;51.022;3.664;2023-07-31T04:52:22;19.20;99.90
56044;DHT22;41912;51.022;3.664;2023-07-31T04:54:48;19.00;99.90
56044;DHT22;41912;51.022;3.664;2023-07-31T04:57:14;19.00;99.90
56044;DHT22;41912;51.022;3.664;2023-07-31T04:59:39;19.00;99.90
56044;DHT22;41912;51.022;3.664;2023-07-31T05:02:06;19.00;99.90
56044;DHT22;41912;51.022;3.664;2023-07-31T05:04:32;18.90;99.90
56044;DHT22;41912;51.022;3.664;2023-07-31T05:06:58;18.90;99.90
56044;DHT22;41912;51.022;3.664;2023-07-31T05:09:23;18.90;99.90
56044;DHT22;41912;51.022;3.664;2023-07-31T05:11:49;19.00;99.90
56044;DHT22;41912;51.022;3.664;2023-07-31T05:14:14;18.90;99.90
56044;DHT22;41912;51.022;3.664;2023-07-31T05:16:41;19.00;99.90
56044;DHT22;41912;51.022;3.664;2023-07-31T05:19:07;19.00;99.90
56044;DHT22;41912;51.022;3.664;2023-07-31T05:21:32;19.00;99.90
56044;DHT22;41912;51.022;3.664;2023-07-31T05:23:58;19.00;99.90
56044;DHT22;41912;51.022;3.664;2023-07-31T05:26:23;18.90;99.90
56044;DHT22;41912;51.022;3.664;2023-07-31T05:28:49;18.90;99.90
56044;DHT22;41912;51.022;3.664;2023-07-31T05:31:15;19.00;99.90
56044;DHT22;41912;51.022;3.664;2023-07-31T05:33:40;19.00;99.90
56044;DHT22;41912;51.022;3.664;2023-07-31T05:36:06;18.90;99.90
56044;DHT22;41912;51.022;3.664;2023-07-31T05:38:31;18.90;99.90
56044;DHT22;41912;51.022;3.664;2023-07-31T05:40:57;19.00;99.90
56044;DHT22;41912;51.022;3.664;2023-07-31T05:43:23;19.00;99.90
56044;DHT22;41912;51.022;3.664;2023-07-31T05:45:48;19.00;99.90
56044;DHT22;41912;51.022;3.664;2023-07-31T05:48:14;19.00;99.90
56044;DHT22;41912;51.022;3.664;2023-07-31T05:50:39;19.00;99.90
56044;DHT22;41912;51.022;3.664;2023-07-31T05:53:06;19.00;99.90
56044;DHT22;41912;51.022;3.664;2023-07-31T05:55:33;19.00;99.90
56044;DHT22;41912;51.022;3.664;2023-07-31T05:57:58;19.00;99.90
56044;DHT22;41912;51.022;3.664;2023-07-31T06:00:24;19.00;99.90
56044;DHT22;41912;51.022;3.664;2023-07-31T06:02:50;19.00;99.90
56044;DHT22;41912;51.022;3.664;2023-07-31T06:05:15;19.00;99.90
56044;DHT22;41912;51.022;3.664;2023-07-31T06:07:41;19.00;99.90
56044;DHT22;41912;51.022;3.664;2023-07-31T06:10:07;19.00;99.90
56044;DHT22;41912;51.022;3.664;2023-07-31T06:12:34;19.00;99.90
56044;DHT22;41912;51.022;3.664;2023-07-31T06:15:00;19.00;99.90
56044;DHT22;41912;51.022;3.664;2023-07-31T06:17:26;19.00;99.90
56044;DHT22;41912;51.022;3.664;2023-07-31T06:19:52;19.10;99.90
56044;DHT22;41912;51.022;3.664;2023-07-31T06:22:18;19.10;99.90
56044;DHT22;41912;51.022;3.664;2023-07-31T06:24:43;19.00;99.90
56044;DHT22;41912;51.022;3.664;2023-07-31T06:27:10;19.10;99.90
56044;DHT22;41912;51.022;3.664;2023-07-31T06:29:35;19.00;99.90
56044;DHT22;41912;51.022;3.664;2023-07-31T06:32:01;19.10;99.90
56044;DHT22;41912;51.022;3.664;2023-07-31T06:34:27;19.10;99.90
56044;DHT22;41912;51.022;3.664;2023-07-31T06:36:56;19.10;99.90
56044;DHT22;41912;51.022;3.664;2023-07-31T06:39:22;19.10;99.90
56044;DHT22;41912;51.022;3.664;2023-07-31T06:41:47;19.10;99.90
56044;DHT22;41912;51.022;3.664;2023-07-31T06:44:13;19.10;99.90
56044;DHT22;41912;51.022;3.664;2023-07-31T06:46:38;19.20;99.90
56044;DHT22;41912;51.022;3.664;2023-07-31T06:49:04;19.20;99.90
56044;DHT22;41912;51.022;3.664;2023-07-31T06:51:30;19.20;99.90
56044;DHT22;41912;51.022;3.664;2023-07-31T06:53:59;19.10;99.90
56044;DHT22;41912;51.022;3.664;2023-07-31T06:56:25;19.20;99.90
56044;DHT22;41912;51.022;3.664;2023-07-31T06:58:51;19.10;99.90
56044;DHT22;41912;51.022;3.664;2023-07-31T07:01:17;19.20;99.90
56044;DHT22;41912;51.022;3.664;2023-07-31T07:03:42;19.20;99.90
56044;DHT22;41912;51.022;3.664;2023-07-31T07:06:08;19.20;99.90
56044;DHT22;41912;51.022;3.664;2023-07-31T07:08:33;19.20;99.90
56044;DHT22;41912;51.022;3.664;2023-07-31T07:10:59;19.20;99.90
56044;DHT22;41912;51.022;3.664;2023-07-31T07:13:25;19.20;99.90
56044;DHT22;41912;51.022;3.664;2023-07-31T07:15:51;19.20;99.90
56044;DHT22;41912;51.022;3.664;2023-07-31T07:18:17;19.30;99.90
56044;DHT22;41912;51.022;3.664;2023-07-31T07:20:50;19.30;99.90
56044;DHT22;41912;51.022;3.664;2023-07-31T07:23:16;19.30;99.90
56044;DHT22;41912;51.022;3.664;2023-07-31T07:25:43;19.40;99.90
56044;DHT22;41912;51.022;3.664;2023-07-31T07:28:09;19.40;99.90
56044;DHT22;41912;51.022;3.664;2023-07-31T07:30:35;19.40;99.90
56044;DHT22;41912;51.022;3.664;2023-07-31T07:33:01;19.40;99.90
56044;DHT22;41912;51.022;3.664;2023-07-31T07:35:26;19.40;99.90
56044;DHT22;41912;51.022;3.664;2023-07-31T07:37:52;19.40;99.90
56044;DHT22;41912;51.022;3.664;2023-07-31T07:40:19;19.40;99.90
56044;DHT22;41912;51.022;3.664;2023-07-31T07:42:44;19.40;99.90
56044;DHT22;41912;51.022;3.664;2023-07-31T07:45:10;19.40;99.90
56044;DHT22;41912;51.022;3.664;2023-07-31T07:47:37;19.40;99.90
56044;DHT22;41912;51.022;3.664;2023-07-31T07:50:03;19.40;99.90
56044;DHT22;41912;51.022;3.664;2023-07-31T07:52:29;19.40;99.90
56044;DHT22;41912;51.022;3.664;2023-07-31T07:54:55;19.40;99.90
56044;DHT22;41912;51.022;3.664;2023-07-31T07:57:20;19.40;99.90
56044;DHT22;41912;51.022;3.664;2023-07-31T07:59:46;19.50;99.90
56044;DHT22;41912;51.022;3.664;2023-07-31T08:02:12;19.50;99.90
56044;DHT22;41912;51.022;3.664;2023-07-31T08:04:37;19.60;99.90
56044;DHT22;41912;51.022;3.664;2023-07-31T08:07:03;19.60;99.90
56044;DHT22;41912;51.022;3.664;2023-07-31T08:09:29;19.70;99.90
56044;DHT22;41912;51.022;3.664;2023-07-31T08:11:54;19.70;99.90
56044;DHT22;41912;51.022;3.664;2023-07-31T08:14:22;19.70;99.90
56044;DHT22;41912;51.022;3.664;2023-07-31T08:16:48;19.70;99.90
56044;DHT22;41912;51.022;3.664;2023-07-31T08:19:13;19.80;99.90
56044;DHT22;41912;51.022;3.664;2023-07-31T08:21:39;19.80;99.90
56044;DHT22;41912;51.022;3.664;2023-07-31T08:24:04;19.80;99.90
56044;DHT22;41912;51.022;3.664;2023-07-31T08:26:30;19.80;99.90
56044;DHT22;41912;51.022;3.664;2023-07-31T08:28:59;19.90;99.90
56044;DHT22;41912;51.022;3.664;2023-07-31T08:31:24;19.90;99.90
56044;DHT22;41912;51.022;3.664;2023-07-31T08:33:50;19.90;99.90
56044;DHT22;41912;51.022;3.664;2023-07-31T08:36:15;19.90;99.90
56044;DHT22;41912;51.022;3.664;2023-07-31T08:38:41;19.90;99.90
56044;DHT22;41912;51.022;3.664;2023-07-31T08:41:07;19.90;99.90
56044;DHT22;41912;51.022;3.664;2023-07-31T08:43:33;20.00;99.90
56044;DHT22;41912;51.022;3.664;2023-07-31T08:45:59;20.00;99.90
56044;DHT22;41912;51.022;3.664;2023-07-31T08:48:25;20.10;99.90
56044;DHT22;41912;51.022;3.664;2023-07-31T08:50:52;20.20;99.90
56044;DHT22;41912;51.022;3.664;2023-07-31T08:53:18;20.20;99.90
56044;DHT22;41912;51.022;3.664;2023-07-31T08:55:44;20.20;99.90
56044;DHT22;41912;51.022;3.664;2023-07-31T08:58:10;20.20;99.90
56044;DHT22;41912;51.022;3.664;2023-07-31T09:00:38;20.30;99.90
56044;DHT22;41912;51.022;3.664;2023-07-31T09:03:18;20.30;99.90
56044;DHT22;41912;51.022;3.664;2023-07-31T09:05:46;20.30;99.90
56044;DHT22;41912;51.022;3.664;2023-07-31T09:08:13;20.30;99.90
56044;DHT22;41912;51.022;3.664;2023-07-31T09:10:43;20.30;99.90
56044;DHT22;41912;51.022;3.664;2023-07-31T09:13:10;20.30;99.90
56044;DHT22;41912;51.022;3.664;2023-07-31T09:15:36;20.30;99.90
56044;DHT22;41912;51.022;3.664;2023-07-31T09:18:04;20.30;99.90
56044;DHT22;41912;51.022;3.664;2023-07-31T09:20:31;20.30;99.90
56044;DHT22;41912;51.022;3.664;2023-07-31T09:23:13;20.40;99.90
56044;DHT22;41912;51.022;3.664;2023-07-31T09:25:41;20.40;99.90
56044;DHT22;41912;51.022;3.664;2023-07-31T09:28:10;20.30;99.90
56044;DHT22;41912;51.022;3.664;2023-07-31T09:30:50;20.40;99.90
56044;DHT22;41912;51.022;3.664;2023-07-31T09:33:16;20.30;99.90
56044;DHT22;41912;51.022;3.664;2023-07-31T09:35:42;20.30;99.90
56044;DHT22;41912;51.022;3.664;2023-07-31T09:38:13;20.30;99.90
56044;DHT22;41912;51.022;3.664;2023-07-31T09:40:41;20.40;99.90
56044;DHT22;41912;51.022;3.664;2023-07-31T09:43:09;20.40;99.90
56044;DHT22;41912;51.022;3.664;2023-07-31T09:45:38;20.40;99.90
56044;DHT22;41912;51.022;3.664;2023-07-31T09:48:07;20.40;99.90
56044;DHT22;41912;51.022;3.664;2023-07-31T09:50:39;20.40;99.90
56044;DHT22;41912;51.022;3.664;2023-07-31T09:53:07;20.50;99.90
56044;DHT22;41912;51.022;3.664;2023-07-31T09:55:34;20.50;99.90
56044;DHT22;41912;51.022;3.664;2023-07-31T09:58:07;20.60;99.90
56044;DHT22;41912;51.022;3.664;2023-07-31T10:00:33;20.60;99.90
56044;DHT22;41912;51.022;3.664;2023-07-31T10:03:01;20.70;99.90
56044;DHT22;41912;51.022;3.664;2023-07-31T10:05:49;20.70;99.90
56044;DHT22;41912;51.022;3.664;2023-07-31T10:08:16;20.70;99.90
56044;DHT22;41912;51.022;3.664;2023-07-31T10:10:43;20.70;99.90
56044;DHT22;41912;51.022;3.664;2023-07-31T10:13:09;20.70;99.90
56044;DHT22;41912;51.022;3.664;2023-07-31T10:15:36;20.70;99.90
56044;DHT22;41912;51.022;3.664;2023-07-31T10:18:02;20.70;99.90
56044;DHT22;41912;51.022;3.664;2023-07-31T10:20:31;20.80;99.90
56044;DHT22;41912;51.022;3.664;2023-07-31T10:22:57;20.80;99.90
56044;DHT22;41912;51.022;3.664;2023-07-31T10:25:26;20.80;99.90
56044;DHT22;41912;51.022;3.664;2023-07-31T10:27:53;20.80;99.90
56044;DHT22;41912;51.022;3.664;2023-07-31T10:30:23;20.80;99.90
56044;DHT22;41912;51.022;3.664;2023-07-31T10:32:51;20.80;99.90
56044;DHT22;41912;51.022;3.664;2023-07-31T10:35:18;20.80;99.90
56044;DHT22;41912;51.022;3.664;2023-07-31T10:37:44;20.80;99.90
56044;DHT22;41912;51.022;3.664;2023-07-31T10:40:12;20.90;99.90
56044;DHT22;41912;51.022;3.664;2023-07-31T10:42:49;20.80;99.90
56044;DHT22;41912;51.022;3.664;2023-07-31T10:45:36;20.90;99.90
56044;DHT22;41912;51.022;3.664;2023-07-31T10:48:06;21.00;99.90
56044;DHT22;41912;51.022;3.664;2023-07-31T10:50:37;21.00;99.90
56044;DHT22;41912;51.022;3.664;2023-07-31T10:53:03;21.00;99.90
56044;DHT22;41912;51.022;3.664;2023-07-31T10:55:38;21.00;99.90
56044;DHT22;41912;51.022;3.664;2023-07-31T10:58:12;21.00;99.90
56044;DHT22;41912;51.022;3.664;2023-07-31T11:00:39;21.00;99.90
56044;DHT22;41912;51.022;3.664;2023-07-31T11:03:10;21.00;99.90
56044;DHT22;41912;51.022;3.664;2023-07-31T11:10:42;21.10;99.90
56044;DHT22;41912;51.022;3.664;2023-07-31T11:13:08;21.20;99.90
56044;DHT22;41912;51.022;3.664;2023-07-31T11:15:34;21.20;99.90
56044;DHT22;41912;51.022;3.664;2023-07-31T11:18:03;21.20;99.90
56044;DHT22;41912;51.022;3.664;2023-07-31T11:20:31;21.30;99.90
56044;DHT22;41912;51.022;3.664;2023-07-31T11:23:05;21.30;99.90
56044;DHT22;41912;51.022;3.664;2023-07-31T11:25:31;21.30;99.90
56044;DHT22;41912;51.022;3.664;2023-07-31T11:28:13;21.30;99.90
56044;DHT22;41912;51.022;3.664;2023-07-31T11:30:40;21.30;99.90
56044;DHT22;41912;51.022;3.664;2023-07-31T11:33:10;21.30;99.90
56044;DHT22;41912;51.022;3.664;2023-07-31T11:35:48;21.30;99.90
56044;DHT22;41912;51.022;3.664;2023-07-31T11:38:30;21.30;99.90
56044;DHT22;41912;51.022;3.664;2023-07-31T11:41:04;21.40;99.90
56044;DHT22;41912;51.022;3.664;2023-07-31T11:43:32;21.40;99.90
56044;DHT22;41912;51.022;3.664;2023-07-31T11:45:59;21.50;99.90
56044;DHT22;41912;51.022;3.664;2023-07-31T11:48:35;21.60;99.90
56044;DHT22;41912;51.022;3.664;2023-07-31T11:51:02;21.60;99.90
56044;DHT22;41912;51.022;3.664;2023-07-31T11:54:03;21.60;99.90
56044;DHT22;41912;51.022;3.664;2023-07-31T11:56:29;21.60;99.90
56044;DHT22;41912;51.022;3.664;2023-07-31T11:58:58;21.60;99.90
56044;DHT22;41912;51.022;3.664;2023-07-31T12:01:26;21.60;99.90
56044;DHT22;41912;51.022;3.664;2023-07-31T12:03:56;21.60;99.90
56044;DHT22;41912;51.022;3.664;2023-07-31T12:06:22;21.60;99.90
56044;DHT22;41912;51.022;3.664;2023-07-31T12:09:04;21.60;99.90
56044;DHT22;41912;51.022;3.664;2023-07-31T12:11:30;21.60;99.90
56044;DHT22;41912;51.022;3.664;2023-07-31T12:13:56;21.70;99.90
56044;DHT22;41912;51.022;3.664;2023-07-31T12:16:26;21.60;99.90
56044;DHT22;41912;51.022;3.664;2023-07-31T12:18:52;21.60;99.90
56044;DHT22;41912;51.022;3.664;2023-07-31T12:21:19;21.60;99.90
56044;DHT22;41912;51.022;3.664;2023-07-31T12:23:45;21.60;99.90
56044;DHT22;41912;51.022;3.664;2023-07-31T12:26:13;21.60;99.90
56044;DHT22;41912;51.022;3.664;2023-07-31T12:28:50;21.60;99.90
56044;DHT22;41912;51.022;3.664;2023-07-31T12:31:21;21.60;99.90
56044;DHT22;41912;51.022;3.664;2023-07-31T12:33:49;21.60;99.90
56044;DHT22;41912;51.022;3.664;2023-07-31T12:36:22;21.50;99.90
56044;DHT22;41912;51.022;3.664;2023-07-31T12:38:48;21.50;99.90
56044;DHT22;41912;51.022;3.664;2023-07-31T12:41:14;21.50;99.90
56044;DHT22;41912;51.022;3.664;2023-07-31T12:43:42;21.40;99.90
56044;DHT22;41912;51.022;3.664;2023-07-31T12:46:08;21.30;99.90
56044;DHT22;41912;51.022;3.664;2023-07-31T12:48:35;21.30;99.90
56044;DHT22;41912;51.022;3.664;2023-07-31T12:51:01;21.20;99.90
56044;DHT22;41912;51.022;3.664;2023-07-31T12:53:28;21.20;99.90
56044;DHT22;41912;51.022;3.664;2023-07-31T12:55:55;21.20;99.90
56044;DHT22;41912;51.022;3.664;2023-07-31T12:58:21;21.10;99.90
56044;DHT22;41912;51.022;3.664;2023-07-31T13:00:46;21.00;99.90
56044;DHT22;41912;51.022;3.664;2023-07-31T13:03:12;21.10;99.90
56044;DHT22;41912;51.022;3.664;2023-07-31T13:05:38;21.10;99.90
56044;DHT22;41912;51.022;3.664;2023-07-31T13:08:03;21.00;99.90
56044;DHT22;41912;51.022;3.664;2023-07-31T13:10:29;21.00;99.90
56044;DHT22;41912;51.022;3.664;2023-07-31T13:12:55;21.00;99.90
56044;DHT22;41912;51.022;3.664;2023-07-31T13:15:21;21.10;99.90
56044;DHT22;41912;51.022;3.664;2023-07-31T13:17:47;21.10;99.90
56044;DHT22;41912;51.022;3.664;2023-07-31T13:20:13;21.00;99.90
56044;DHT22;41912;51.022;3.664;2023-07-31T13:22:39;21.00;99.90
56044;DHT22;41912;51.022;3.664;2023-07-31T13:25:05;21.00;99.90
56044;DHT22;41912;51.022;3.664;2023-07-31T13:27:31;21.00;99.90
56044;DHT22;41912;51.022;3.664;2023-07-31T13:29:57;20.90;99.90
56044;DHT22;41912;51.022;3.664;2023-07-31T13:32:23;21.00;99.90
56044;DHT22;41912;51.022;3.664;2023-07-31T13:34:49;21.00;99.90
56044;DHT22;41912;51.022;3.664;2023-07-31T13:37:15;21.00;99.90
56044;DHT22;41912;51.022;3.664;2023-07-31T13:39:42;20.90;99.90
56044;DHT22;41912;51.022;3.664;2023-07-31T13:42:09;20.90;99.90
56044;DHT22;41912;51.022;3.664;2023-07-31T13:44:42;20.90;99.90
56044;DHT22;41912;51.022;3.664;2023-07-31T13:47:08;20.90;99.90
56044;DHT22;41912;51.022;3.664;2023-07-31T13:49:34;20.90;99.90
56044;DHT22;41912;51.022;3.664;2023-07-31T13:52:01;20.90;99.90
56044;DHT22;41912;51.022;3.664;2023-07-31T13:54:26;20.90;99.90
56044;DHT22;41912;51.022;3.664;2023-07-31T13:56:52;20.90;99.90
56044;DHT22;41912;51.022;3.664;2023-07-31T13:59:18;20.90;99.90
56044;DHT22;41912;51.022;3.664;2023-07-31T14:01:44;20.90;99.90
56044;DHT22;41912;51.022;3.664;2023-07-31T14:04:10;20.80;99.90
56044;DHT22;41912;51.022;3.664;2023-07-31T14:06:35;20.90;99.90
56044;DHT22;41912;51.022;3.664;2023-07-31T14:09:01;20.90;99.90
56044;DHT22;41912;51.022;3.664;2023-07-31T14:11:28;20.80;99.90
56044;DHT22;41912;51.022;3.664;2023-07-31T14:13:53;20.80;99.90
56044;DHT22;41912;51.022;3.664;2023-07-31T14:16:19;20.80;99.90
56044;DHT22;41912;51.022;3.664;2023-07-31T14:18:45;20.80;99.90
56044;DHT22;41912;51.022;3.664;2023-07-31T14:21:13;20.80;99.90
56044;DHT22;41912;51.022;3.664;2023-07-31T14:23:39;20.80;99.90
56044;DHT22;41912;51.022;3.664;2023-07-31T14:26:05;20.80;99.90
56044;DHT22;41912;51.022;3.664;2023-07-31T14:28:31;20.80;99.90
56044;DHT22;41912;51.022;3.664;2023-07-31T14:30:56;20.80;99.90
56044;DHT22;41912;51.022;3.664;2023-07-31T14:33:22;20.80;99.90
56044;DHT22;41912;51.022;3.664;2023-07-31T14:35:48;20.80;99.90
56044;DHT22;41912;51.022;3.664;2023-07-31T14:38:13;20.80;99.90
56044;DHT22;41912;51.022;3.664;2023-07-31T14:40:39;20.60;99.90
56044;DHT22;41912;51.022;3.664;2023-07-31T14:43:04;20.80;99.90
56044;DHT22;41912;51.022;3.664;2023-07-31T14:45:30;20.80;99.90
56044;DHT22;41912;51.022;3.664;2023-07-31T14:47:56;20.70;99.90
56044;DHT22;41912;51.022;3.664;2023-07-31T14:50:21;20.80;99.90
56044;DHT22;41912;51.022;3.664;2023-07-31T14:52:48;20.80;99.90
56044;DHT22;41912;51.022;3.664;2023-07-31T14:55:14;20.80;99.90
56044;DHT22;41912;51.022;3.664;2023-07-31T14:57:40;20.80;99.90
56044;DHT22;41912;51.022;3.664;2023-07-31T15:00:06;20.80;99.90
56044;DHT22;41912;51.022;3.664;2023-07-31T15:02:36;20.80;99.90
56044;DHT22;41912;51.022;3.664;2023-07-31T15:05:02;20.80;99.90
56044;DHT22;41912;51.022;3.664;2023-07-31T15:07:27;20.70;99.90
56044;DHT22;41912;51.022;3.664;2023-07-31T15:09:54;20.70;99.90
56044;DHT22;41912;51.022;3.664;2023-07-31T15:12:19;20.70;99.90
56044;DHT22;41912;51.022;3.664;2023-07-31T15:14:45;20.70;99.90
56044;DHT22;41912;51.022;3.664;2023-07-31T15:17:11;20.70;99.90
56044;DHT22;41912;51.022;3.664;2023-07-31T15:19:36;20.70;99.90
56044;DHT22;41912;51.022;3.664;2023-07-31T15:22:03;20.70;99.90
56044;DHT22;41912;51.022;3.664;2023-07-31T15:24:29;20.70;99.90
56044;DHT22;41912;51.022;3.664;2023-07-31T15:26:55;20.60;99.90
56044;DHT22;41912;51.022;3.664;2023-07-31T15:29:21;20.60;99.90
56044;DHT22;41912;51.022;3.664;2023-07-31T15:31:47;20.60;99.90
56044;DHT22;41912;51.022;3.664;2023-07-31T15:34:13;20.60;99.90
56044;DHT22;41912;51.022;3.664;2023-07-31T15:36:39;20.60;99.90
56044;DHT22;41912;51.022;3.664;2023-07-31T15:39:05;20.60;99.90
56044;DHT22;41912;51.022;3.664;2023-07-31T15:41:36;20.60;99.90